Montreal, Canada
Current Conditions -  °F | °C
As of 2:00 AM on Wednesday 22 Oct 2014 (Local Time) from CYHU Reporting Station
Overcast Overcast  
Wind Chill: 35°   Ceiling: 3900
Heat Index: 43°   Visibility: 9mi
Dew Point: 36°   Wind: 16mph
Humidity: 76%   Direction: 30°NNE
Pressure: 30.18"   Gusts: 24mph
Location:  45.51°N, 73.55°W
Report Text: CYHU 220600Z AUTO 03014G21KT 9SM OVC039 06/02 A3018 RMK SLP221
Loading
Personal Weather Stations






























Interactive Weather Map
Tropical Storm Tracking
New forecast layout! Learn more

10-Day Weather Forecast

Advertisements
Track Severe Weather on mobile